• Join FlightAware (Why Join?)
  • Login
  • US Flag 
07:00PM EDT


 

Airport Tracker/Info


-or-


 

Live Flight TrackerFlight Track Log ✈ EJM475 ✈ 27-Jun-2013 ✈ KMKC - KDAL

Flight Track Log - Related Links

Times and Time Zones

All times are in EDT time to prevent confusion due to time zone crossing. See the EJM475 flight status page for this flight to view local times or setup timezone preferences in your user account.

Time Position Orientation Groundspeed Altitude Reporting Facility
EDT Latitude Longitude Course Direction KTS MPH feet Rate Location/Type
04:16PM 39.1667 -94.5500 38° Northeast 193 222 4,000  Level Kansas City TRACON
04:17PM 39.1781 -94.4467 82° East 241 277 8,200 2,520 Climbing Kansas City Center
04:18PM 39.1211 -94.4094 153° Southeast 274 315 10,200 1,680 Climbing Kansas City Center
04:19PM 39.0547 -94.5025 227° Southwest 318 366 11,700 2,220 Climbing Kansas City Center
04:20PM 38.9922 -94.5858 226° Southwest 334 384 14,900 3,120 Climbing Kansas City Center
04:21PM 38.9242 -94.6794 227° Southwest 322 371 18,200 2,700 Climbing Kansas City Center
04:22PM 38.8631 -94.7600 226° Southwest 326 375 20,600 1,980 Climbing Kansas City Center
04:23PM 38.7794 -94.8147 207° Southwest 354 407 22,400 1,380 Climbing Kansas City Center
04:24PM 38.6628 -94.8594 197° South 392 451 23,500 1,800 Climbing Kansas City Center
04:25PM 38.5597 -94.8981 196° South 398 458 26,200 2,220 Climbing Kansas City Center
04:26PM 38.4403 -94.9464 198° South 403 464 28,100 1,680 Climbing Kansas City Center
04:27PM 38.3342 -94.9867 197° South 415 478 29,700 1,620 Climbing Kansas City Center
04:28PM 38.2078 -95.0353 197° South 419 482 31,500 2,040 Climbing Kansas City Center
04:29PM 38.0989 -95.0778 197° South 425 489 34,000 1,800 Climbing Kansas City Center
04:30PM 37.9786 -95.1225 196° South 407 468 35,300 960 Climbing Kansas City Center
04:31PM 37.8678 -95.1658 197° South 417 480 36,000 300 Climbing Kansas City Center
04:32PM 37.7464 -95.2128 197° South 446 513 36,000  Level Kansas City Center
04:33PM 37.6192 -95.2608 197° South 470 541 36,000  Level Kansas City Center
04:35PM 37.4906 -95.3103 197° South 480 552 36,000  Level Kansas City Center
04:36PM 37.3642 -95.3572 196° South 476 548 36,000  Level Kansas City Center
04:37PM 37.2150 -95.4125 196° South 468 539 36,000  Level Kansas City Center
04:38PM 37.0919 -95.4575 196° South 462 532 36,000  Level Kansas City Center
04:39PM 36.9667 -95.5036 196° South 467 537 36,000  Level Kansas City Center
04:40PM 36.8417 -95.5514 197° South 470 541 36,000  Level Kansas City Center
04:41PM 36.7167 -95.5981 197° South 470 541 36,000  Level Kansas City Center
04:42PM 36.5808 -95.6486 197° South 468 539 36,000  Level Kansas City Center
04:43PM 36.4561 -95.6947 197° South 467 537 36,000  Level Kansas City Center
04:44PM 36.3314 -95.7383 196° South 466 536 36,000  Level Kansas City Center
04:45PM 36.1975 -95.7681 190° South 466 536 36,000  Level Kansas City Center
04:46PM 36.0528 -95.7400 171° South 464 534 36,000  Level Kansas City Center
04:47PM 35.9239 -95.7000 166° South 459 528 36,000  Level Kansas City Center
04:48PM 35.8011 -95.6606 165° South 457 526 36,000  Level Kansas City Center
04:49PM 35.6792 -95.6214 165° South 454 522 36,000  Level Kansas City Center
04:50PM 35.5578 -95.5842 166° South 456 525 36,000 -900 Level Fort Worth Center
04:51PM 35.4361 -95.5486 167° South 451 519 34,200 -1,920 Descending Fort Worth Center
04:52PM 35.3125 -95.5081 165° South 456 525 32,200 -1,620 Descending Fort Worth Center
04:53PM 35.1911 -95.4703 166° South 456 525 31,000 -720 Descending Fort Worth Center
04:54PM 35.0639 -95.4756 182° South 456 525 30,800 -300 Descending Fort Worth Center
04:55PM 34.9375 -95.5267 198° South 456 525 30,500 -480 Descending Fort Worth Center
04:56PM 34.8131 -95.5825 200° South 467 537 29,900 -1,200 Descending Fort Worth Center
04:57PM 34.6908 -95.6458 203° Southwest 473 544 28,100 -1,440 Descending Fort Worth Center
04:58PM 34.5706 -95.7036 202° Southwest 478 550 27,100 -1,020 Descending Fort Worth Center
04:59PM 34.4506 -95.7639 203° Southwest 472 543 26,100 -960 Descending Fort Worth Center
05:00PM 34.3303 -95.8217 202° Southwest 472 543 25,200 -1,380 Descending Fort Worth Center
05:01PM 34.2161 -95.8764 202° Southwest 466 536 23,400 -2,100 Descending Fort Worth Center
05:02PM 34.1042 -95.9311 202° Southwest 455 524 21,100 -2,340 Descending Fort Worth Center
05:03PM 33.9983 -95.9831 202° Southwest 434 499 18,800 -2,220 Descending Fort Worth Center
05:04PM 33.8903 -96.0347 202° Southwest 424 488 16,700 -2,100 Descending Fort Worth Center
05:05PM 33.7886 -96.0839 202° Southwest 402 463 14,600 -2,100 Descending Fort Worth Center
05:06PM 33.6764 -96.1381 202° Southwest 397 457 12,500 -1,980 Descending Fort Worth Center
05:07PM 33.5850 -96.1817 202° Southwest 391 450 10,700 -1,260 Descending Fort Worth Center
05:08PM 33.4750 -96.2356 202° Southwest 391 450 10,000 -360 Descending Fort Worth Center
05:09PM 33.3939 -96.2739 202° Southwest 370 426 10,000 -540 Level Fort Worth Center
05:10PM 33.3108 -96.3147 202° Southwest 318 366 9,000 -1,080 Descending Fort Worth Center
05:11PM 33.2550 -96.3700 220° Southwest 289 333 7,900 -1,200 Descending Fort Worth Center
05:12PM 33.2033 -96.4503 232° Southwest 282 325 6,600 -1,200 Descending Fort Worth Center
05:13PM 33.1642 -96.5150 234° Southwest 282 325 5,500 -1,200 Descending Fort Worth Center
05:14PM 33.1167 -96.5850 231° Southwest 282 325 4,300 -780 Descending Fort Worth Center
05:15PM 33.0692 -96.6597 233° Southwest 272 313 4,000 -600 Descending Fort Worth Center
05:16PM 33.0319 -96.7222 235° Southwest 267 307 3,100 -660 Descending Fort Worth Center
05:17PM 33.0000 -96.7667 229° Southwest 264 304 3,000 -120 Descending Dallas / Fort Worth TRACON
05:17PM 32.9667 -96.8167 232° Southwest 261 300 3,000 -600 Level Dallas / Fort Worth TRACON
05:19PM 32.9167 -96.8833 228° Southwest 229 264 1,900 -960 Descending Dallas / Fort Worth TRACON
05:19PM 32.8667 -96.8667 164° South 135 155 1,100 -180 Descending Dallas / Fort Worth TRACON
05:20PM 32.8500 -96.8500 140° Southeast 178 205 1,600 840 Climbing Dallas / Fort Worth TRACON
05:21PM 32.8167 -96.8000 128° Southeast 179 206 2,700 660 Climbing Dallas / Fort Worth TRACON
05:22PM 32.8500 -96.7833 23° Northeast 207 238 3,000 -180 Climbing Dallas / Fort Worth TRACON
05:23PM 32.9000 -96.8167 331° Northwest 214 246 2,400 -540 Descending Dallas / Fort Worth TRACON
05:24PM 32.9333 -96.8667 308° West 200 230 2,000 -360 Descending Dallas / Fort Worth TRACON
05:25PM 32.9000 -96.9000 220° Southwest 192 221 1,700 -600 Descending Dallas / Fort Worth TRACON
05:26PM 32.8667 -96.8667 140° Southeast 128 147 900 -840 Descending Dallas / Fort Worth TRACON